Time;durP1;ratioP1;P1;durP2;ratioP2;P2;SDS_P1;SDS_P2;PMS_P1;PMS_P2;Temp;Humidity;BMP_temperature;BMP_pressure;BME280_temperature;BME280_humidity;BME280_pressure;Samples;Min_cycle;Max_cycle;Signal;HPM_P1;HPM_P2
2021/06/13 00:00:46;;;;;;;6.17;5.57;;;;;;;16.95;100.00;102627.46;1857626;75;86931;-73
2021/06/13 00:06:12;;;;;;;8.03;6.63;;;;;;;16.94;100.00;102622.44;1946951;73;39603;-73
2021/06/13 00:11:36;;;;;;;7.77;6.20;;;;;;;17.16;100.00;102617.84;1890415;74;86516;-73
2021/06/13 00:17:04;;;;;;;9.83;6.47;;;;;;;17.17;100.00;102619.53;1907390;73;39513;-73
2021/06/13 00:22:48;;;;;;;7.77;6.00;;;;;;;17.14;100.00;102613.94;1960853;70;86620;-75
2021/06/13 00:28:32;;;;;;;6.67;6.07;;;;;;;17.04;100.00;102615.92;1922403;71;39454;-72
2021/06/13 00:34:04;;;;;;;7.30;6.60;;;;;;;16.98;100.00;102619.89;1784993;79;86101;-73
2021/06/13 00:39:48;;;;;;;7.97;6.50;;;;;;;17.20;100.00;102606.34;1867609;76;86805;-73
2021/06/13 00:45:15;;;;;;;7.43;6.73;;;;;;;17.24;100.00;102606.85;1919929;73;39719;-72
2021/06/13 00:50:42;;;;;;;7.00;6.07;;;;;;;17.33;100.00;102616.92;1877531;75;86234;-71
2021/06/13 00:56:29;;;;;;;7.97;6.17;;;;;;;17.27;100.00;102629.33;1980527;71;39633;-73
2021/06/13 01:02:14;;;;;;;7.63;6.47;;;;;;;17.00;100.00;102629.70;1889575;74;86054;-75
2021/06/13 01:08:12;;;;;;;7.57;6.33;;;;;;;17.04;100.00;102626.59;1913073;73;85630;-74
2021/06/13 01:14:12;;;;;;;8.37;6.73;;;;;;;17.05;100.00;102625.48;1887443;74;86307;-72
2021/06/13 01:20:02;;;;;;;7.33;6.37;;;;;;;16.99;100.00;102629.97;1903231;73;85720;-73
2021/06/13 01:22:42;;;;;;;7.17;6.47;;;;;;;16.88;100.00;102646.58;1837583;75;933848;-71
2021/06/13 01:25:19;;;;;;;8.70;7.23;;;;;;;16.84;100.00;102646.31;1868727;74;935656;-73
2021/06/13 01:31:02;;;;;;;6.97;6.30;;;;;;;16.78;100.00;102646.87;1949404;73;39734;-73
2021/06/13 01:36:32;;;;;;;6.87;6.23;;;;;;;16.38;100.00;102646.89;1931058;72;39495;-71
2021/06/13 01:42:18;;;;;;;6.73;6.00;;;;;;;16.70;100.00;102640.44;1876956;74;86831;-72
2021/06/13 01:47:51;;;;;;;9.97;7.40;;;;;;;16.53;100.00;102630.59;1851304;75;86793;-73
2021/06/13 01:53:42;;;;;;;9.03;7.50;;;;;;;16.49;100.00;102633.13;1942525;72;86536;-74
2021/06/13 01:59:29;;;;;;;8.53;7.47;;;;;;;16.63;100.00;102617.45;1964468;71;39677;-73
2021/06/13 02:05:15;;;;;;;8.17;6.90;;;;;;;16.45;100.00;102626.41;1883326;73;86796;-73
2021/06/13 02:10:48;;;;;;;8.73;7.83;;;;;;;16.62;100.00;102624.17;1903933;74;86564;-73
2021/06/13 02:16:33;;;;;;;10.53;8.57;;;;;;;16.55;100.00;102636.78;1988571;71;39778;-75
2021/06/13 02:22:01;;;;;;;9.30;8.33;;;;;;;16.56;100.00;102636.48;1943892;71;85814;-73
2021/06/13 02:27:30;;;;;;;10.07;8.30;;;;;;;16.40;100.00;102646.87;1943849;73;39573;-71
2021/06/13 02:33:01;;;;;;;9.33;8.43;;;;;;;16.33;100.00;102656.15;1762146;80;86893;-72
2021/06/13 02:38:25;;;;;;;10.77;9.07;;;;;;;16.39;100.00;102657.81;1912278;72;39483;-73
2021/06/13 02:43:50;;;;;;;10.37;8.33;;;;;;;16.28;100.00;102664.55;1837562;77;86416;-71
2021/06/13 02:49:14;;;;;;;12.50;8.70;;;;;;;16.39;100.00;102666.23;1933737;72;39494;-73
2021/06/13 02:54:45;;;;;;;8.43;7.50;;;;;;;16.21;100.00;102661.75;1836975;77;86609;-71
2021/06/13 03:00:13;;;;;;;10.10;8.30;;;;;;;16.16;100.00;102661.73;1902076;73;39499;-71
2021/06/13 03:05:40;;;;;;;9.43;8.07;;;;;;;15.96;100.00;102670.13;1876854;75;86675;-71
2021/06/13 03:11:05;;;;;;;10.00;8.40;;;;;;;15.97;100.00;102677.39;1948588;73;39637;-71
2021/06/13 03:16:31;;;;;;;9.77;8.63;;;;;;;16.00;100.00;102672.11;1889982;73;39651;-71
2021/06/13 03:21:57;;;;;;;8.27;7.37;;;;;;;15.80;100.00;102675.68;1838041;77;86374;-73
2021/06/13 03:27:24;;;;;;;10.87;8.57;;;;;;;15.77;100.00;102681.00;1894227;73;39704;-70
2021/06/13 03:32:50;;;;;;;9.70;7.90;;;;;;;15.62;100.00;102684.58;1837591;77;86080;-73
2021/06/13 03:38:15;;;;;;;9.50;8.10;;;;;;;15.57;100.00;102689.34;1917920;72;39868;-71
2021/06/13 03:43:40;;;;;;;10.23;7.93;;;;;;;15.61;100.00;102697.48;1877143;75;86134;-73
2021/06/13 03:49:05;;;;;;;9.00;8.07;;;;;;;15.65;100.00;102695.27;1922017;73;39551;-73
2021/06/13 03:54:30;;;;;;;8.80;7.90;;;;;;;15.69;100.00;102702.55;1893871;73;39794;-73
2021/06/13 03:59:57;;;;;;;9.67;8.10;;;;;;;15.61;100.00;102711.48;1882636;75;86272;-71
2021/06/13 04:05:22;;;;;;;13.63;8.97;;;;;;;15.69;100.00;102708.16;1914418;72;39821;-71
2021/06/13 04:10:50;;;;;;;11.83;9.07;;;;;;;15.53;100.00;102718.47;1869143;76;86811;-73
2021/06/13 04:16:18;;;;;;;11.80;8.03;;;;;;;15.44;100.00;102727.91;1946129;73;39503;-71
2021/06/13 04:21:46;;;;;;;11.37;8.73;;;;;;;15.46;100.00;102727.06;1877611;75;86359;-71
2021/06/13 04:27:14;;;;;;;9.40;8.33;;;;;;;15.65;100.00;102725.23;1901932;73;39569;-71
2021/06/13 04:32:38;;;;;;;10.30;8.30;;;;;;;15.58;100.00;102743.67;1876823;74;86497;-73
2021/06/13 04:38:04;;;;;;;10.37;8.47;;;;;;;15.65;100.00;102740.09;1948620;73;39718;-73
2021/06/13 04:43:29;;;;;;;10.20;8.13;;;;;;;15.64;100.00;102746.80;1943543;73;39480;-71
2021/06/13 04:48:52;;;;;;;9.90;8.40;;;;;;;15.44;100.00;102760.12;1785998;79;86222;-72
2021/06/13 04:54:28;;;;;;;10.13;8.63;;;;;;;15.76;100.00;102764.22;1945363;73;39763;-73
2021/06/13 05:00:22;;;;;;;9.67;7.97;;;;;;;15.93;100.00;102759.80;1917885;73;39551;-73
2021/06/13 05:05:48;;;;;;;8.27;7.33;;;;;;;16.06;100.00;102758.44;1869270;77;86479;-72
2021/06/13 05:11:13;;;;;;;9.43;7.80;;;;;;;15.99;100.00;102763.47;1946577;73;40649;-71
2021/06/13 05:16:41;;;;;;;10.23;7.63;;;;;;;16.16;100.00;102762.69;1876960;75;85647;-71
2021/06/13 05:22:07;;;;;;;9.27;7.90;;;;;;;16.13;100.00;102764.06;1922194;73;39526;-74
2021/06/13 05:27:32;;;;;;;7.93;6.97;;;;;;;16.25;100.00;102771.69;1926458;72;39832;-73
2021/06/13 05:32:57;;;;;;;7.30;6.67;;;;;;;16.29;100.00;102768.61;1840449;77;86659;-72
2021/06/13 05:38:22;;;;;;;9.57;7.40;;;;;;;16.38;100.00;102772.56;1944813;73;39468;-71
2021/06/13 05:43:46;;;;;;;10.03;6.90;;;;;;;16.42;100.00;102783.22;1837496;77;85626;-73
2021/06/13 05:49:10;;;;;;;7.90;7.13;;;;;;;16.56;100.00;102795.01;1946999;73;39576;-71
2021/06/13 05:54:39;;;;;;;8.67;7.37;;;;;;;16.69;100.00;102790.28;1891494;74;85834;-72
2021/06/13 06:00:03;;;;;;;8.40;6.40;;;;;;;16.78;100.00;102791.98;1939790;72;39478;-72
2021/06/13 06:05:28;;;;;;;6.93;6.20;;;;;;;16.86;100.00;102791.41;1943695;73;39740;-73
2021/06/13 06:10:53;;;;;;;7.30;6.13;;;;;;;17.03;100.00;102794.78;1777258;79;86283;-71
2021/06/13 06:16:21;;;;;;;7.30;6.00;;;;;;;17.14;100.00;102797.89;1895951;73;40322;-73
2021/06/13 06:21:46;;;;;;;6.17;5.03;;;;;;;17.21;100.00;102799.83;1832231;78;86644;-73
2021/06/13 06:27:10;;;;;;;4.43;4.03;;;;;;;17.26;100.00;102806.86;1902654;73;39902;-71
2021/06/13 06:32:34;;;;;;;6.57;3.80;;;;;;;17.45;100.00;102798.69;1877038;75;86137;-71
2021/06/13 06:37:59;;;;;;;4.10;3.13;;;;;;;17.61;100.00;102809.35;1838414;77;86603;-73
2021/06/13 06:43:24;;;;;;;4.80;3.50;;;;;;;17.74;100.00;102796.11;1944405;73;39429;-76
2021/06/13 06:48:47;;;;;;;3.93;3.00;;;;;;;17.98;100.00;102786.44;1878176;75;86383;-74
2021/06/13 06:54:11;;;;;;;8.07;3.00;;;;;;;17.94;100.00;102792.36;1919508;73;39589;-72
2021/06/13 06:59:36;;;;;;;3.50;2.57;;;;;;;18.08;100.00;102788.64;1881708;75;86264;-72
2021/06/13 07:05:00;;;;;;;4.70;2.27;;;;;;;18.20;100.00;102793.36;1838626;77;86835;-72
2021/06/13 07:10:25;;;;;;;2.33;2.10;;;;;;;18.31;100.00;102786.28;1912537;73;40275;-72
2021/06/13 07:15:52;;;;;;;3.87;1.80;;;;;;;18.48;100.00;102791.77;1837513;77;86950;-73
2021/06/13 07:21:16;;;;;;;3.77;1.77;;;;;;;18.54;100.00;102780.80;1945880;73;39796;-73
2021/06/13 07:26:40;;;;;;;2.70;1.73;;;;;;;18.70;100.00;102777.30;1877101;75;86301;-72
2021/06/13 07:32:06;;;;;;;3.43;1.40;;;;;;;18.99;100.00;102775.39;1948634;73;39706;-72
2021/06/13 07:37:30;;;;;;;1.73;1.47;;;;;;;19.39;100.00;102772.72;1910073;73;39491;-73
2021/06/13 07:42:55;;;;;;;2.30;1.40;;;;;;;19.81;100.00;102766.33;1893034;73;86390;-73
2021/06/13 07:48:18;;;;;;;2.70;1.20;;;;;;;19.95;100.00;102765.87;1945639;73;39694;-73
2021/06/13 07:53:44;;;;;;;1.57;1.40;;;;;;;20.18;100.00;102764.73;1836991;77;86332;-72
2021/06/13 07:59:08;;;;;;;1.47;1.37;;;;;;;20.59;100.00;102750.86;1921518;73;39733;-72
2021/06/13 08:04:36;;;;;;;2.00;1.50;;;;;;;20.92;100.00;102756.81;1942671;73;39601;-72
2021/06/13 08:10:01;;;;;;;2.00;1.40;;;;;;;21.17;100.00;102751.31;1949509;73;39458;-73
2021/06/13 08:15:26;;;;;;;3.00;1.60;;;;;;;21.50;100.00;102740.77;1944160;73;39589;-74
2021/06/13 08:20:51;;;;;;;1.93;1.73;;;;;;;21.54;100.00;102742.66;1777267;79;86332;-73
2021/06/13 08:26:16;;;;;;;3.07;2.10;;;;;;;21.88;100.00;102742.22;1946178;72;39696;-73
2021/06/13 08:31:40;;;;;;;3.73;2.50;;;;;;;22.18;100.00;102742.14;1892812;74;86506;-77
2021/06/13 08:37:04;;;;;;;4.53;2.87;;;;;;;22.15;100.00;102737.12;1949086;73;39622;-72
2021/06/13 08:42:29;;;;;;;5.73;3.30;;;;;;;22.40;100.00;102728.61;1943502;73;39655;-72
2021/06/13 08:47:54;;;;;;;3.50;2.57;;;;;;;22.56;100.00;102724.23;1825127;76;85708;-71
2021/06/13 08:53:19;;;;;;;3.87;3.17;;;;;;;22.59;100.00;102723.02;1918542;73;39564;-72
2021/06/13 08:58:44;;;;;;;4.33;2.60;;;;;;;22.60;100.00;102719.60;1837133;77;86347;-72
2021/06/13 09:04:09;;;;;;;5.60;3.80;;;;;;;22.66;100.00;102717.75;1937317;72;39603;-73
2021/06/13 09:09:35;;;;;;;4.62;3.80;;;;;;;23.56;100.00;102719.31;1893762;74;81028;-71
2021/06/13 09:15:02;;;;;;;5.45;3.95;;;;;;;23.50;100.00;102716.94;1930186;73;39448;-71
2021/06/13 09:20:27;;;;;;;4.70;3.90;;;;;;;23.64;100.00;102712.57;1943802;72;39386;-72
2021/06/13 09:26:08;;;;;;;4.42;3.65;;;;;;;23.73;100.00;102715.70;1928796;72;39646;-71
2021/06/13 09:31:36;;;;;;;5.30;4.10;;;;;;;23.64;100.00;102719.09;1877068;74;86617;-72
2021/06/13 09:37:06;;;;;;;4.28;3.75;;;;;;;23.82;100.00;102710.88;1838692;77;85421;-72
2021/06/13 09:42:32;;;;;;;5.42;3.62;;;;;;;23.94;100.00;102703.97;1911808;73;39842;-73
2021/06/13 09:48:08;;;;;;;4.65;4.08;;;;;;;24.17;100.00;102699.61;1838221;77;86286;-72
2021/06/13 09:53:38;;;;;;;8.33;4.03;;;;;;;24.25;100.00;102705.30;1904580;75;86466;-71
2021/06/13 09:59:22;;;;;;;4.67;3.92;;;;;;;24.61;100.00;102692.73;1945250;73;39641;-72
2021/06/13 10:04:47;;;;;;;5.50;3.75;;;;;;;24.39;100.00;102692.33;1832512;77;86713;-71
2021/06/13 10:10:41;;;;;;;6.43;3.83;;;;;;;24.20;100.00;102699.77;1930690;72;39565;-72
2021/06/13 10:16:14;;;;;;;5.37;4.03;;;;;;;24.65;100.00;102686.03;1946725;73;39616;-72
2021/06/13 10:21:46;;;;;;;6.15;3.52;;;;;;;24.54;100.00;102684.73;1893327;74;86695;-72
2021/06/13 10:27:13;;;;;;;4.85;4.03;;;;;;;24.66;100.00;102686.88;1947068;73;39716;-71
2021/06/13 10:32:58;;;;;;;5.62;4.47;;;;;;;24.50;100.00;102685.15;1884145;74;86501;-71
2021/06/13 10:38:29;;;;;;;5.50;4.00;;;;;;;24.50;100.00;102676.63;1943578;73;39581;-72
2021/06/13 10:44:16;;;;;;;4.95;4.55;;;;;;;24.61;100.00;102679.94;1870598;75;85699;-73
2021/06/13 10:50:04;;;;;;;4.37;3.27;;;;;;;24.47;100.00;102678.73;1904640;73;86433;-73
2021/06/13 10:56:01;;;;;;;4.40;3.42;;;;;;;24.38;100.00;102673.05;1943779;72;39469;-71
2021/06/13 11:01:57;;;;;;;3.80;3.00;;;;;;;24.68;100.00;102666.08;1876976;75;86193;-71
2021/06/13 11:08:01;;;;;;;5.30;4.22;;;;;;;24.66;100.00;102656.45;1892435;74;86430;-72
2021/06/13 11:13:46;;;;;;;5.65;4.05;;;;;;;24.69;100.00;102650.70;1875587;73;86663;-72
2021/06/13 11:19:30;;;;;;;6.47;4.78;;;;;;;25.01;100.00;102644.43;1946983;72;39513;-72
2021/06/13 11:25:46;;;;;;;4.35;3.65;;;;;;;25.13;100.00;102646.55;1917851;73;85834;-72
2021/06/13 11:31:21;;;;;;;5.55;3.80;;;;;;;25.08;100.00;102644.73;1946675;73;39600;-72
2021/06/13 11:36:55;;;;;;;5.03;3.75;;;;;;;25.01;100.00;102635.06;1947045;71;86114;-71
2021/06/13 11:45:14;;;;;;;4.15;3.52;;;;;;;25.50;100.00;102633.50;2002156;69;39597;-72
2021/06/13 11:50:38;;;;;;;3.80;3.50;;;;;;;25.12;100.00;102612.16;1877020;75;86463;-72
2021/06/13 11:56:07;;;;;;;4.20;3.90;;;;;;;25.08;100.00;102609.18;1948742;72;39608;-71
2021/06/13 12:01:33;;;;;;;5.30;3.92;;;;;;;25.21;100.00;102611.54;1943125;73;39876;-72
2021/06/13 12:07:02;;;;;;;3.65;3.25;;;;;;;25.27;100.00;102603.91;1882524;75;86542;-71
2021/06/13 12:12:30;;;;;;;4.55;3.60;;;;;;;25.19;100.00;102595.42;1943777;73;39626;-71
2021/06/13 12:17:54;;;;;;;4.50;3.95;;;;;;;25.08;100.00;102589.27;1825199;76;86231;-71
2021/06/13 12:23:18;;;;;;;5.87;3.90;;;;;;;25.24;100.00;102581.84;1934771;72;39739;-71
2021/06/13 12:28:46;;;;;;;4.42;4.03;;;;;;;25.06;100.00;102582.27;1882782;75;86641;-71
2021/06/13 12:34:18;;;;;;;4.90;3.52;;;;;;;25.45;100.00;102563.97;1947132;73;39610;-71
2021/06/13 12:39:57;;;;;;;4.37;3.98;;;;;;;25.52;100.00;102562.82;1869290;77;86605;-72
2021/06/13 12:45:23;;;;;;;3.62;2.92;;;;;;;25.39;100.00;102549.10;1948005;73;39585;-72
2021/06/13 12:50:49;;;;;;;3.60;3.30;;;;;;;25.32;100.00;102545.98;1837848;77;86830;-71
2021/06/13 12:56:15;;;;;;;2.72;2.58;;;;;;;25.29;100.00;102548.91;1919172;72;39555;-72
2021/06/13 13:01:42;;;;;;;3.17;2.90;;;;;;;25.51;100.00;102540.64;1882416;75;85597;-71
2021/06/13 13:07:07;;;;;;;3.05;2.40;;;;;;;25.68;100.00;102536.27;1923022;73;39817;-70
2021/06/13 13:13:06;;;;;;;4.12;3.70;;;;;;;25.22;100.00;102529.30;1930015;73;39882;-71
2021/06/13 13:18:39;;;;;;;3.37;3.08;;;;;;;25.56;100.00;102522.56;1925523;73;39693;-71
2021/06/13 13:24:07;;;;;;;3.60;3.17;;;;;;;25.08;100.00;102513.91;1948822;73;39425;-71
2021/06/13 13:29:51;;;;;;;2.67;2.33;;;;;;;25.57;100.00;102506.57;1947609;71;86524;-71
2021/06/13 13:35:26;;;;;;;4.20;3.58;;;;;;;25.82;100.00;102496.13;1917437;73;39625;-72
2021/06/13 13:40:52;;;;;;;4.72;3.75;;;;;;;25.33;100.00;102492.14;1751588;80;86909;-72
2021/06/13 13:49:20;;;;;;;3.17;2.98;;;;;;;25.10;100.00;102490.81;2000396;69;39819;-72
2021/06/13 13:51:52;;;;;;;2.72;2.52;;;;;;;25.08;100.00;102486.89;1936244;73;934724;-72
2021/06/13 13:54:28;;;;;;;5.50;3.87;;;;;;;25.00;100.00;102489.20;1923530;73;936499;-72
2021/06/13 13:56:59;;;;;;;5.00;4.15;;;;;;;25.27;100.00;102482.17;1936219;72;934466;-72
2021/06/13 13:59:31;;;;;;;3.62;3.33;;;;;;;25.59;100.00;102477.73;1861699;75;936621;-72
2021/06/13 14:02:01;;;;;;;3.83;3.15;;;;;;;25.43;100.00;102476.68;1870770;75;934859;-72
2021/06/13 14:04:32;;;;;;;5.72;3.85;;;;;;;25.42;100.00;102468.73;1825328;76;936558;-71
2021/06/13 14:07:04;;;;;;;4.25;3.80;;;;;;;25.36;100.00;102473.81;1845781;76;934395;-72
2021/06/13 14:09:34;;;;;;;3.67;3.37;;;;;;;25.42;100.00;102482.13;1832527;76;936541;-72
2021/06/13 14:12:05;;;;;;;4.05;3.75;;;;;;;25.65;100.00;102477.20;1829789;77;934678;-72
2021/06/13 14:14:36;;;;;;;4.90;3.85;;;;;;;25.87;100.00;102470.29;1831319;77;936922;-72
2021/06/13 14:17:06;;;;;;;3.70;3.40;;;;;;;25.77;100.00;102466.45;1826357;75;935123;-72
2021/06/13 14:19:36;;;;;;;4.53;3.85;;;;;;;25.86;100.00;102470.05;1814832;76;936728;-72
2021/06/13 14:22:07;;;;;;;5.17;3.92;;;;;;;25.88;100.00;102466.27;1809130;78;934574;-72
2021/06/13 14:24:36;;;;;;;9.75;4.30;;;;;;;26.14;100.00;102458.25;1808961;78;936655;-71
2021/06/13 14:27:08;;;;;;;5.78;4.17;;;;;;;26.32;100.00;102460.93;1819639;78;934867;-71
2021/06/13 14:29:39;;;;;;;6.60;3.60;;;;;;;26.22;100.00;102457.97;1819519;78;936591;-72
2021/06/13 14:32:10;;;;;;;4.62;4.08;;;;;;;26.30;100.00;102452.75;1807555;78;936611;-72
2021/06/13 14:34:40;;;;;;;4.80;3.90;;;;;;;26.54;100.00;102456.21;1819519;77;936585;-72
2021/06/13 14:40:10;;;;;;;3.75;3.42;;;;;;;26.27;100.00;102454.28;1923606;73;39533;-71
2021/06/13 14:45:35;;;;;;;4.28;3.98;;;;;;;26.20;100.00;102451.19;1881382;75;86292;-73
2021/06/13 14:50:58;;;;;;;4.17;3.77;;;;;;;26.03;100.00;102451.35;1764032;79;86340;-72
2021/06/13 14:56:22;;;;;;;5.25;3.92;;;;;;;25.85;100.00;102447.02;1933527;72;39449;-72
2021/06/13 15:01:47;;;;;;;4.75;4.22;;;;;;;26.24;100.00;102435.64;1837424;77;86345;-71
2021/06/13 15:07:11;;;;;;;4.17;3.77;;;;;;;25.92;100.00;102440.77;1902265;73;40458;-72
2021/06/13 15:12:36;;;;;;;5.42;3.50;;;;;;;26.21;100.00;102442.05;1876907;75;86598;-72
2021/06/13 15:18:02;;;;;;;5.28;4.30;;;;;;;26.67;100.00;102427.95;1930189;73;39515;-72
2021/06/13 15:23:33;;;;;;;3.47;3.17;;;;;;;26.44;100.00;102425.34;1888303;73;39414;-72
2021/06/13 15:28:57;;;;;;;2.52;2.33;;;;;;;26.19;100.00;102414.46;1847444;76;86509;-72
2021/06/13 15:34:23;;;;;;;4.80;4.05;;;;;;;26.10;100.00;102402.38;1944736;73;39586;-72
2021/06/13 15:39:47;;;;;;;4.22;3.77;;;;;;;26.37;100.00;102391.72;1837527;77;86265;-71
2021/06/13 15:45:31;;;;;;;2.70;2.58;;;;;;;26.10;100.00;102378.96;1990077;71;39388;-73
2021/06/13 15:51:14;;;;;;;3.17;2.87;;;;;;;25.70;100.00;102377.36;1927057;72;86133;-72
2021/06/13 15:56:39;;;;;;;5.25;4.40;;;;;;;25.96;100.00;102377.06;1882560;75;86060;-71
2021/06/13 16:02:05;;;;;;;4.60;3.90;;;;;;;26.56;100.00;102362.05;1924723;73;39766;-71
2021/06/13 16:07:32;;;;;;;4.40;3.95;;;;;;;26.58;100.00;102372.48;1943780;73;39475;-72
2021/06/13 16:13:00;;;;;;;2.92;2.75;;;;;;;26.53;100.00;102362.73;1870706;74;86647;-72
2021/06/13 16:18:25;;;;;;;4.60;3.75;;;;;;;25.97;100.00;102363.03;1944560;73;41441;-71
2021/06/13 16:23:49;;;;;;;4.97;3.47;;;;;;;26.38;100.00;102351.23;1837684;77;86978;-71
2021/06/13 16:29:13;;;;;;;5.15;4.65;;;;;;;26.57;100.00;102342.92;1946637;73;39713;-72
2021/06/13 16:34:37;;;;;;;4.95;3.85;;;;;;;26.51;100.00;102345.18;1876898;75;86453;-73
2021/06/13 16:40:02;;;;;;;4.70;4.30;;;;;;;26.38;100.00;102354.92;1907452;73;40249;-72
2021/06/13 16:45:27;;;;;;;5.05;4.05;;;;;;;26.64;100.00;102343.98;1946217;72;39616;-72
2021/06/13 16:50:51;;;;;;;3.10;2.83;;;;;;;26.40;100.00;102348.87;1825252;76;86227;-72
2021/06/13 16:56:16;;;;;;;4.67;4.28;;;;;;;26.19;100.00;102339.80;1935152;72;39543;-73
2021/06/13 17:01:41;;;;;;;5.60;3.60;;;;;;;26.25;100.00;102334.73;1892676;75;86486;-74
2021/06/13 17:07:25;;;;;;;4.42;3.62;;;;;;;26.12;100.00;102326.76;1915097;72;39649;-76
2021/06/13 17:12:49;;;;;;;6.55;4.45;;;;;;;25.74;100.00;102322.80;1837412;77;86045;-78
2021/06/13 17:18:15;;;;;;;7.22;5.95;;;;;;;26.03;100.00;102320.93;1945991;73;39608;-78
2021/06/13 17:23:39;;;;;;;5.75;4.95;;;;;;;26.26;100.00;102320.74;1881975;75;86496;-70
2021/06/13 17:29:07;;;;;;;7.12;5.15;;;;;;;26.34;100.00;102318.95;1938677;72;39680;-79
2021/06/13 17:34:32;;;;;;;7.92;5.97;;;;;;;26.28;100.00;102312.66;1942713;73;39607;-70
2021/06/13 17:40:12;;;;;;;4.65;4.03;;;;;;;26.00;100.00;102310.26;1947910;73;39737;-81
2021/06/13 17:45:39;;;;;;;6.50;4.55;;;;;;;25.65;100.00;102307.00;1890280;75;86422;-77
2021/06/13 17:51:11;;;;;;;8.95;4.35;;;;;;;25.88;100.00;102325.32;1921112;73;39706;-71
2021/06/13 17:56:35;;;;;;;5.00;4.20;;;;;;;25.90;100.00;102327.20;1876727;75;86443;-69
2021/06/13 18:01:59;;;;;;;5.22;3.72;;;;;;;25.94;100.00;102330.17;1838304;77;86268;-70
2021/06/13 18:07:24;;;;;;;5.47;4.30;;;;;;;25.81;100.00;102324.47;1944372;73;39486;-69
2021/06/13 18:12:49;;;;;;;4.58;4.00;;;;;;;25.72;100.00;102324.32;1878515;75;86660;-79
2021/06/13 18:18:14;;;;;;;4.30;3.90;;;;;;;25.66;100.00;102321.48;1934646;72;39535;-69
2021/06/13 18:23:41;;;;;;;5.35;4.17;;;;;;;25.72;100.00;102294.43;1876933;75;86284;-77
2021/06/13 18:29:07;;;;;;;4.40;4.00;;;;;;;25.69;100.00;102318.75;1948551;73;39618;-80
2021/06/13 18:34:32;;;;;;;5.95;4.62;;;;;;;25.61;100.00;102316.84;1942786;73;39529;-67
2021/06/13 18:39:57;;;;;;;6.70;4.30;;;;;;;25.58;100.00;102308.18;1883437;74;85514;-79
2021/06/13 18:45:22;;;;;;;5.25;4.08;;;;;;;25.45;100.00;102308.71;1918255;73;40457;-80
2021/06/13 18:50:47;;;;;;;7.25;5.28;;;;;;;25.35;100.00;102317.68;1832121;78;86817;-78
2021/06/13 18:56:12;;;;;;;4.80;4.30;;;;;;;25.26;100.00;102300.70;1935151;72;39436;-80
2021/06/13 19:01:36;;;;;;;5.37;4.87;;;;;;;25.26;100.00;102306.39;1877251;75;85756;-68
2021/06/13 19:07:01;;;;;;;6.75;5.60;;;;;;;25.19;100.00;102299.61;1949272;72;39467;-76
2021/06/13 19:12:26;;;;;;;5.80;4.45;;;;;;;24.90;100.00;102299.94;1892466;73;39544;-67
2021/06/13 19:17:50;;;;;;;5.12;4.05;;;;;;;25.03;100.00;102303.67;1777242;79;86475;-80
2021/06/13 19:23:15;;;;;;;6.00;3.70;;;;;;;24.85;100.00;102302.14;1918598;72;39667;-79
2021/06/13 19:28:41;;;;;;;6.65;4.95;;;;;;;24.68;100.00;102304.54;1892109;75;86805;-77
2021/06/13 19:34:06;;;;;;;6.10;4.50;;;;;;;24.64;100.00;102305.58;1923250;72;39902;-69
2021/06/13 19:39:29;;;;;;;5.30;4.80;;;;;;;24.52;100.00;102295.56;1912493;73;39719;-70
2021/06/13 19:44:53;;;;;;;4.65;4.25;;;;;;;24.20;100.00;102296.50;1873288;75;86284;-79
2021/06/13 19:50:19;;;;;;;4.12;3.67;;;;;;;24.22;100.00;102307.50;1917988;73;39815;-69
2021/06/13 19:55:48;;;;;;;4.72;4.17;;;;;;;24.12;100.00;102304.45;1834872;77;86428;-74
2021/06/13 20:01:11;;;;;;;4.50;3.75;;;;;;;23.99;100.00;102299.26;1920296;73;39581;-76
2021/06/13 20:06:36;;;;;;;3.60;3.30;;;;;;;23.77;100.00;102306.61;1876904;75;86172;-73
2021/06/13 20:12:02;;;;;;;3.92;3.30;;;;;;;23.72;100.00;102307.38;1925680;73;39608;-69
2021/06/13 20:17:29;;;;;;;3.95;3.15;;;;;;;23.49;100.00;102307.60;1913439;73;39502;-78
2021/06/13 20:22:54;;;;;;;4.67;3.52;;;;;;;23.42;100.00;102312.94;1777374;80;86182;-78
2021/06/13 20:28:20;;;;;;;5.12;3.05;;;;;;;23.25;100.00;102308.72;1916586;73;39769;-79
2021/06/13 20:33:45;;;;;;;4.33;3.02;;;;;;;23.17;100.00;102311.56;1869088;76;86394;-69
2021/06/13 20:39:30;;;;;;;3.92;3.12;;;;;;;22.98;100.00;102312.73;1944858;71;39683;-70
2021/06/13 20:44:59;;;;;;;3.20;2.90;;;;;;;23.20;100.00;102308.88;1946959;71;86370;-70
2021/06/13 20:50:20;;;;;;;3.10;2.87;;;;;;;22.86;100.00;102306.91;1934130;72;39822;-74
2021/06/13 20:55:48;;;;;;;3.95;3.20;;;;;;;22.77;100.00;102293.90;1869063;75;86503;-75
2021/06/13 21:01:15;;;;;;;4.45;2.95;;;;;;;22.77;100.00;102299.56;1946487;73;39510;-77
2021/06/13 21:06:40;;;;;;;4.07;3.23;;;;;;;22.68;100.00;102296.11;1876788;75;86367;-79
2021/06/13 21:12:06;;;;;;;4.45;3.00;;;;;;;22.40;100.00;102279.19;1938729;73;39655;-69
2021/06/13 21:17:31;;;;;;;6.37;3.30;;;;;;;22.40;100.00;102297.59;1889371;73;39480;-77
2021/06/13 21:22:56;;;;;;;3.70;2.90;;;;;;;22.28;100.00;102295.98;1877214;75;86229;-78
2021/06/13 21:28:27;;;;;;;3.50;3.00;;;;;;;22.19;100.00;102291.72;1913104;73;39608;-77
2021/06/13 21:33:53;;;;;;;5.67;3.40;;;;;;;22.12;100.00;102293.38;1947199;71;86292;-68
2021/06/13 21:39:18;;;;;;;3.63;3.00;;;;;;;21.96;100.00;102290.72;1916228;73;39499;-78
2021/06/13 21:44:42;;;;;;;4.50;3.30;;;;;;;21.90;100.00;102292.01;1831836;78;86483;-66
2021/06/13 21:50:06;;;;;;;5.70;3.87;;;;;;;21.84;100.00;102291.89;1948688;73;39539;-66
2021/06/13 21:55:51;;;;;;;6.27;3.17;;;;;;;21.18;100.00;102304.41;1851467;76;86097;-69
2021/06/13 22:01:15;;;;;;;4.43;3.30;;;;;;;20.86;100.00;102297.57;1899420;72;39562;-78
2021/06/13 22:06:39;;;;;;;4.57;3.33;;;;;;;20.57;100.00;102289.52;1876863;75;85790;-76
2021/06/13 22:12:06;;;;;;;4.40;4.00;;;;;;;20.28;100.00;102294.07;1938723;73;39527;-76
2021/06/13 22:17:31;;;;;;;4.53;4.07;;;;;;;20.13;100.00;102293.58;1942958;73;39466;-68
2021/06/13 22:23:15;;;;;;;4.93;4.40;;;;;;;19.74;100.00;102296.34;1827454;76;86134;-77
2021/06/13 22:28:41;;;;;;;4.60;3.97;;;;;;;19.71;100.00;102298.96;1877329;76;86460;-68
2021/06/13 22:34:09;;;;;;;4.47;4.07;;;;;;;19.72;100.00;102293.59;1938536;73;39679;-75
2021/06/13 22:39:34;;;;;;;4.53;4.13;;;;;;;19.35;100.00;102286.06;1845594;77;85873;-78
2021/06/13 22:44:59;;;;;;;4.83;4.33;;;;;;;19.10;100.00;102291.02;1942745;71;86442;-65
2021/06/13 22:50:23;;;;;;;5.90;4.63;;;;;;;19.16;100.00;102281.91;1914465;73;39690;-68
2021/06/13 22:55:48;;;;;;;4.83;4.40;;;;;;;19.40;100.00;102276.12;1869095;76;86425;-65
2021/06/13 23:01:13;;;;;;;6.10;4.10;;;;;;;19.54;100.00;102271.38;1946348;73;39521;-66
2021/06/13 23:06:37;;;;;;;5.20;4.50;;;;;;;19.28;100.00;102263.10;1876784;75;85870;-68
2021/06/13 23:12:02;;;;;;;5.33;4.63;;;;;;;19.35;100.00;102260.70;1939418;73;39588;-68
2021/06/13 23:17:26;;;;;;;6.47;4.63;;;;;;;19.14;100.00;102256.02;1943841;73;39549;-67
2021/06/13 23:22:51;;;;;;;5.40;4.60;;;;;;;19.15;100.00;102254.04;1825043;76;85953;-78
2021/06/13 23:28:17;;;;;;;4.67;4.20;;;;;;;18.92;100.00;102253.86;1945730;73;39715;-68
2021/06/13 23:33:43;;;;;;;8.97;5.60;;;;;;;19.08;100.00;102250.23;1876981;75;86396;-65
2021/06/13 23:39:26;;;;;;;4.77;4.33;;;;;;;19.05;100.00;102247.44;1925633;71;39522;-77
2021/06/13 23:44:56;;;;;;;6.53;4.77;;;;;;;18.88;100.00;102235.91;1785313;79;86782;-78
2021/06/13 23:50:20;;;;;;;5.40;4.90;;;;;;;18.81;100.00;102234.64;1945171;73;39611;-78
2021/06/13 23:55:44;;;;;;;6.13;4.90;;;;;;;18.65;100.00;102227.84;1837383;77;86260;-78
